sensor_id;sensor_type;location;lat;lon;timestamp;temperature;humidity
1476;DHT22;730;48.870;12.542;2022-09-09T00:02:02;15.80;18.10
1476;DHT22;730;48.870;12.542;2022-09-09T00:04:35;15.80;18.40
1476;DHT22;730;48.870;12.542;2022-09-09T00:15:36;15.70;18.80
1476;DHT22;730;48.870;12.542;2022-09-09T00:18:14;15.70;18.40
1476;DHT22;730;48.870;12.542;2022-09-09T00:21:05;15.60;18.80
1476;DHT22;730;48.870;12.542;2022-09-09T00:23:38;15.60;19.00
1476;DHT22;730;48.870;12.542;2022-09-09T00:28:51;15.60;19.50
1476;DHT22;730;48.870;12.542;2022-09-09T00:31:25;15.60;19.50
1476;DHT22;730;48.870;12.542;2022-09-09T00:33:53;15.50;19.80
1476;DHT22;730;48.870;12.542;2022-09-09T00:36:23;15.60;19.80
1476;DHT22;730;48.870;12.542;2022-09-09T00:39:01;15.50;19.50
1476;DHT22;730;48.870;12.542;2022-09-09T00:44:11;15.50;18.90
1476;DHT22;730;48.870;12.542;2022-09-09T00:52:08;15.40;18.20
1476;DHT22;730;48.870;12.542;2022-09-09T00:57:36;15.40;18.50
1476;DHT22;730;48.870;12.542;2022-09-09T01:05:35;15.30;17.80
1476;DHT22;730;48.870;12.542;2022-09-09T01:08:10;15.30;17.60
1476;DHT22;730;48.870;12.542;2022-09-09T01:10:56;15.30;17.50
1476;DHT22;730;48.870;12.542;2022-09-09T01:13:28;15.30;17.70
1476;DHT22;730;48.870;12.542;2022-09-09T01:16:00;15.20;17.70
1476;DHT22;730;48.870;12.542;2022-09-09T01:18:31;15.20;17.80
1476;DHT22;730;48.870;12.542;2022-09-09T01:26:45;15.00;19.40
1476;DHT22;730;48.870;12.542;2022-09-09T01:29:16;15.00;20.70
1476;DHT22;730;48.870;12.542;2022-09-09T01:32:35;15.00;20.60
1476;DHT22;730;48.870;12.542;2022-09-09T01:34:48;14.90;20.40
1476;DHT22;730;48.870;12.542;2022-09-09T01:37:15;15.00;19.80
1476;DHT22;730;48.870;12.542;2022-09-09T01:39:43;15.00;19.90
1476;DHT22;730;48.870;12.542;2022-09-09T01:42:12;14.90;19.60
1476;DHT22;730;48.870;12.542;2022-09-09T01:44:39;14.90;20.00
1476;DHT22;730;48.870;12.542;2022-09-09T01:47:05;14.80;19.80
1476;DHT22;730;48.870;12.542;2022-09-09T01:49:31;14.80;19.90
1476;DHT22;730;48.870;12.542;2022-09-09T01:51:58;14.80;19.70
1476;DHT22;730;48.870;12.542;2022-09-09T01:54:28;14.80;19.60
1476;DHT22;730;48.870;12.542;2022-09-09T01:57:17;14.80;19.10
1476;DHT22;730;48.870;12.542;2022-09-09T02:02:30;14.70;19.40
1476;DHT22;730;48.870;12.542;2022-09-09T02:07:48;14.70;19.80
1476;DHT22;730;48.870;12.542;2022-09-09T02:10:24;14.60;19.90
1476;DHT22;730;48.870;12.542;2022-09-09T02:13:04;14.60;20.00
1476;DHT22;730;48.870;12.542;2022-09-09T02:15:55;14.60;19.60
1476;DHT22;730;48.870;12.542;2022-09-09T02:18:30;14.60;20.20
1476;DHT22;730;48.870;12.542;2022-09-09T02:20:59;14.60;19.90
1476;DHT22;730;48.870;12.542;2022-09-09T02:23:25;14.50;20.00
1476;DHT22;730;48.870;12.542;2022-09-09T02:25:51;14.50;20.40
1476;DHT22;730;48.870;12.542;2022-09-09T02:28:20;14.50;20.90
1476;DHT22;730;48.870;12.542;2022-09-09T02:30:49;14.50;20.80
1476;DHT22;730;48.870;12.542;2022-09-09T02:33:25;14.50;20.70
1476;DHT22;730;48.870;12.542;2022-09-09T02:35:53;14.50;20.90
1476;DHT22;730;48.870;12.542;2022-09-09T02:38:24;14.40;20.50
1476;DHT22;730;48.870;12.542;2022-09-09T02:40:51;14.40;20.50
1476;DHT22;730;48.870;12.542;2022-09-09T02:43:17;14.40;20.40
1476;DHT22;730;48.870;12.542;2022-09-09T02:46:47;14.40;20.30
1476;DHT22;730;48.870;12.542;2022-09-09T02:49:28;14.40;20.40
1476;DHT22;730;48.870;12.542;2022-09-09T02:52:06;14.30;20.00
1476;DHT22;730;48.870;12.542;2022-09-09T02:54:38;14.30;19.60
1476;DHT22;730;48.870;12.542;2022-09-09T02:59:30;14.30;19.40
1476;DHT22;730;48.870;12.542;2022-09-09T03:01:56;14.30;19.00
1476;DHT22;730;48.870;12.542;2022-09-09T03:04:22;14.30;19.10
1476;DHT22;730;48.870;12.542;2022-09-09T03:06:48;14.20;19.50
1476;DHT22;730;48.870;12.542;2022-09-09T03:09:14;14.20;19.10
1476;DHT22;730;48.870;12.542;2022-09-09T03:11:40;14.10;19.30
1476;DHT22;730;48.870;12.542;2022-09-09T03:14:05;14.10;19.40
1476;DHT22;730;48.870;12.542;2022-09-09T03:16:31;14.10;19.70
1476;DHT22;730;48.870;12.542;2022-09-09T03:18:58;14.10;19.90
1476;DHT22;730;48.870;12.542;2022-09-09T03:21:24;14.10;19.90
1476;DHT22;730;48.870;12.542;2022-09-09T03:23:50;14.10;20.10
1476;DHT22;730;48.870;12.542;2022-09-09T03:26:15;14.10;20.20
1476;DHT22;730;48.870;12.542;2022-09-09T03:28:42;14.10;20.00
1476;DHT22;730;48.870;12.542;2022-09-09T03:31:07;14.10;20.20
1476;DHT22;730;48.870;12.542;2022-09-09T03:33:36;14.10;20.40
1476;DHT22;730;48.870;12.542;2022-09-09T03:36:02;14.20;20.50
1476;DHT22;730;48.870;12.542;2022-09-09T03:38:28;14.20;19.90
1476;DHT22;730;48.870;12.542;2022-09-09T03:40:55;14.20;20.30
1476;DHT22;730;48.870;12.542;2022-09-09T03:43:23;14.20;20.20
1476;DHT22;730;48.870;12.542;2022-09-09T03:45:49;14.10;21.10
1476;DHT22;730;48.870;12.542;2022-09-09T03:48:16;14.10;21.10
1476;DHT22;730;48.870;12.542;2022-09-09T03:50:52;14.10;21.10
1476;DHT22;730;48.870;12.542;2022-09-09T03:53:19;14.10;21.40
1476;DHT22;730;48.870;12.542;2022-09-09T03:55:51;14.10;21.80
1476;DHT22;730;48.870;12.542;2022-09-09T03:58:21;14.00;22.30
1476;DHT22;730;48.870;12.542;2022-09-09T04:00:58;14.00;22.40
1476;DHT22;730;48.870;12.542;2022-09-09T04:03:24;14.00;22.80
1476;DHT22;730;48.870;12.542;2022-09-09T04:05:54;14.00;23.10
1476;DHT22;730;48.870;12.542;2022-09-09T04:08:20;14.00;23.50
1476;DHT22;730;48.870;12.542;2022-09-09T04:10:47;14.00;23.60
1476;DHT22;730;48.870;12.542;2022-09-09T04:13:14;13.90;23.70
1476;DHT22;730;48.870;12.542;2022-09-09T04:15:43;13.90;23.70
1476;DHT22;730;48.870;12.542;2022-09-09T04:18:09;13.90;24.00
1476;DHT22;730;48.870;12.542;2022-09-09T04:20:35;13.90;24.00
1476;DHT22;730;48.870;12.542;2022-09-09T04:23:01;13.90;23.90
1476;DHT22;730;48.870;12.542;2022-09-09T04:25:26;13.90;23.80
1476;DHT22;730;48.870;12.542;2022-09-09T04:27:56;14.00;23.90
1476;DHT22;730;48.870;12.542;2022-09-09T04:30:22;13.90;23.60
1476;DHT22;730;48.870;12.542;2022-09-09T04:32:48;13.90;23.30
1476;DHT22;730;48.870;12.542;2022-09-09T04:35:14;13.90;22.90
1476;DHT22;730;48.870;12.542;2022-09-09T04:37:40;13.90;23.10
1476;DHT22;730;48.870;12.542;2022-09-09T04:40:07;13.90;23.40
1476;DHT22;730;48.870;12.542;2022-09-09T04:42:38;13.90;23.40
1476;DHT22;730;48.870;12.542;2022-09-09T04:45:06;13.90;23.40
1476;DHT22;730;48.870;12.542;2022-09-09T04:47:32;13.90;23.50
1476;DHT22;730;48.870;12.542;2022-09-09T04:49:58;13.90;23.30
1476;DHT22;730;48.870;12.542;2022-09-09T04:52:23;13.80;23.30
1476;DHT22;730;48.870;12.542;2022-09-09T04:54:49;13.80;23.50
1476;DHT22;730;48.870;12.542;2022-09-09T04:57:14;13.90;23.80
1476;DHT22;730;48.870;12.542;2022-09-09T04:59:40;13.90;23.00
1476;DHT22;730;48.870;12.542;2022-09-09T05:02:06;13.90;22.80
1476;DHT22;730;48.870;12.542;2022-09-09T05:04:32;13.90;23.00
1476;DHT22;730;48.870;12.542;2022-09-09T05:06:58;13.90;22.90
1476;DHT22;730;48.870;12.542;2022-09-09T05:09:24;13.90;22.50
1476;DHT22;730;48.870;12.542;2022-09-09T05:11:50;14.00;22.40
1476;DHT22;730;48.870;12.542;2022-09-09T05:14:16;13.90;22.20
1476;DHT22;730;48.870;12.542;2022-09-09T05:16:44;13.90;22.30
1476;DHT22;730;48.870;12.542;2022-09-09T05:19:10;14.00;22.00
1476;DHT22;730;48.870;12.542;2022-09-09T05:21:36;14.00;21.60
1476;DHT22;730;48.870;12.542;2022-09-09T05:24:02;14.00;21.50
1476;DHT22;730;48.870;12.542;2022-09-09T05:26:28;14.00;21.50
1476;DHT22;730;48.870;12.542;2022-09-09T05:28:55;14.00;21.70
1476;DHT22;730;48.870;12.542;2022-09-09T05:31:21;14.10;22.20
1476;DHT22;730;48.870;12.542;2022-09-09T05:33:47;14.20;22.00
1476;DHT22;730;48.870;12.542;2022-09-09T05:36:16;14.20;21.70
1476;DHT22;730;48.870;12.542;2022-09-09T05:38:43;14.20;21.50
1476;DHT22;730;48.870;12.542;2022-09-09T05:41:10;14.20;20.90
1476;DHT22;730;48.870;12.542;2022-09-09T05:43:41;14.10;20.40
1476;DHT22;730;48.870;12.542;2022-09-09T05:46:11;14.10;20.20
1476;DHT22;730;48.870;12.542;2022-09-09T05:48:39;14.10;20.20
1476;DHT22;730;48.870;12.542;2022-09-09T05:51:07;14.20;19.90
1476;DHT22;730;48.870;12.542;2022-09-09T05:53:33;14.20;19.60
1476;DHT22;730;48.870;12.542;2022-09-09T05:56:17;14.30;19.00
1476;DHT22;730;48.870;12.542;2022-09-09T05:58:47;14.30;18.90
1476;DHT22;730;48.870;12.542;2022-09-09T06:01:14;14.40;18.60
1476;DHT22;730;48.870;12.542;2022-09-09T06:03:42;14.40;18.30
1476;DHT22;730;48.870;12.542;2022-09-09T06:06:11;14.50;18.10
1476;DHT22;730;48.870;12.542;2022-09-09T06:08:40;14.50;17.80
1476;DHT22;730;48.870;12.542;2022-09-09T06:11:13;14.60;17.50
1476;DHT22;730;48.870;12.542;2022-09-09T06:13:40;14.60;16.90
1476;DHT22;730;48.870;12.542;2022-09-09T06:16:08;14.70;17.50
1476;DHT22;730;48.870;12.542;2022-09-09T06:18:33;14.70;16.70
1476;DHT22;730;48.870;12.542;2022-09-09T06:21:01;14.70;17.40
1476;DHT22;730;48.870;12.542;2022-09-09T06:23:29;14.80;19.20
1476;DHT22;730;48.870;12.542;2022-09-09T06:28:35;15.10;20.10
1476;DHT22;730;48.870;12.542;2022-09-09T06:31:09;15.30;21.10
1476;DHT22;730;48.870;12.542;2022-09-09T06:33:37;15.40;18.80
1476;DHT22;730;48.870;12.542;2022-09-09T06:36:10;15.60;17.90
1476;DHT22;730;48.870;12.542;2022-09-09T06:38:37;15.90;17.20
1476;DHT22;730;48.870;12.542;2022-09-09T06:41:02;16.10;16.90
1476;DHT22;730;48.870;12.542;2022-09-09T06:43:28;16.40;15.90
1476;DHT22;730;48.870;12.542;2022-09-09T06:45:56;16.70;15.00
1476;DHT22;730;48.870;12.542;2022-09-09T06:48:22;17.10;12.60
1476;DHT22;730;48.870;12.542;2022-09-09T06:50:47;17.40;7.20
1476;DHT22;730;48.870;12.542;2022-09-09T06:53:17;17.50;6.10
1476;DHT22;730;48.870;12.542;2022-09-09T06:55:45;17.70;5.00
1476;DHT22;730;48.870;12.542;2022-09-09T06:58:10;17.80;1.80
1476;DHT22;730;48.870;12.542;2022-09-09T07:00:36;17.70;1.20
1476;DHT22;730;48.870;12.542;2022-09-09T07:03:04;17.80;1.50
1476;DHT22;730;48.870;12.542;2022-09-09T07:05:29;17.80;1.40
1476;DHT22;730;48.870;12.542;2022-09-09T07:07:55;17.80;1.20
1476;DHT22;730;48.870;12.542;2022-09-09T07:10:20;17.80;1.00
1476;DHT22;730;48.870;12.542;2022-09-09T07:12:51;17.70;1.20
1476;DHT22;730;48.870;12.542;2022-09-09T07:15:17;17.80;1.80
1476;DHT22;730;48.870;12.542;2022-09-09T07:17:44;17.80;2.20
1476;DHT22;730;48.870;12.542;2022-09-09T07:20:10;17.90;1.70
1476;DHT22;730;48.870;12.542;2022-09-09T07:22:36;18.00;1.00
1476;DHT22;730;48.870;12.542;2022-09-09T07:25:03;17.90;1.00
1476;DHT22;730;48.870;12.542;2022-09-09T07:27:28;17.90;1.00
1476;DHT22;730;48.870;12.542;2022-09-09T07:29:54;17.90;1.00
1476;DHT22;730;48.870;12.542;2022-09-09T07:32:20;17.90;1.00
1476;DHT22;730;48.870;12.542;2022-09-09T07:34:45;17.80;1.00
1476;DHT22;730;48.870;12.542;2022-09-09T07:37:12;17.80;1.00
1476;DHT22;730;48.870;12.542;2022-09-09T07:39:39;17.70;1.00
1476;DHT22;730;48.870;12.542;2022-09-09T07:42:05;17.70;1.10
1476;DHT22;730;48.870;12.542;2022-09-09T07:44:31;17.60;1.30
1476;DHT22;730;48.870;12.542;2022-09-09T07:47:00;17.60;1.60
1476;DHT22;730;48.870;12.542;2022-09-09T07:49:26;17.70;1.50
1476;DHT22;730;48.870;12.542;2022-09-09T07:51:51;17.80;1.70
1476;DHT22;730;48.870;12.542;2022-09-09T07:54:18;17.90;1.60
1476;DHT22;730;48.870;12.542;2022-09-09T07:56:49;18.00;1.60
1476;DHT22;730;48.870;12.542;2022-09-09T07:59:15;18.20;1.30
1476;DHT22;730;48.870;12.542;2022-09-09T08:01:46;18.40;1.00
1476;DHT22;730;48.870;12.542;2022-09-09T08:04:14;18.50;1.00
1476;DHT22;730;48.870;12.542;2022-09-09T08:06:47;18.70;1.00
1476;DHT22;730;48.870;12.542;2022-09-09T08:09:14;18.90;1.00
1476;DHT22;730;48.870;12.542;2022-09-09T08:11:40;19.20;1.00
1476;DHT22;730;48.870;12.542;2022-09-09T08:14:08;19.40;1.00
1476;DHT22;730;48.870;12.542;2022-09-09T08:16:37;19.60;1.00
1476;DHT22;730;48.870;12.542;2022-09-09T08:19:04;19.70;1.00
1476;DHT22;730;48.870;12.542;2022-09-09T08:21:32;19.70;1.00
1476;DHT22;730;48.870;12.542;2022-09-09T08:23:59;19.70;1.00
1476;DHT22;730;48.870;12.542;2022-09-09T08:26:27;19.60;1.00
1476;DHT22;730;48.870;12.542;2022-09-09T08:28:55;19.60;1.00
1476;DHT22;730;48.870;12.542;2022-09-09T08:31:33;19.60;1.00
1476;DHT22;730;48.870;12.542;2022-09-09T08:34:00;19.50;1.00
1476;DHT22;730;48.870;12.542;2022-09-09T08:36:28;19.40;1.00
1476;DHT22;730;48.870;12.542;2022-09-09T08:38:56;19.30;1.00
1476;DHT22;730;48.870;12.542;2022-09-09T08:47:11;19.20;1.00
1476;DHT22;730;48.870;12.542;2022-09-09T08:55:40;19.30;1.00
1476;DHT22;730;48.870;12.542;2022-09-09T08:58:19;19.30;1.00
1476;DHT22;730;48.870;12.542;2022-09-09T09:01:02;19.30;1.00
1476;DHT22;730;48.870;12.542;2022-09-09T09:07:13;19.20;1.00
1476;DHT22;730;48.870;12.542;2022-09-09T09:12:26;18.90;1.00
1476;DHT22;730;48.870;12.542;2022-09-09T09:14:54;18.90;1.00
1476;DHT22;730;48.870;12.542;2022-09-09T09:17:26;18.80;1.00
1476;DHT22;730;48.870;12.542;2022-09-09T09:19:53;18.80;1.00
1476;DHT22;730;48.870;12.542;2022-09-09T09:22:19;18.80;1.00
1476;DHT22;730;48.870;12.542;2022-09-09T09:24:55;18.80;1.00
1476;DHT22;730;48.870;12.542;2022-09-09T09:27:31;18.80;1.00
1476;DHT22;730;48.870;12.542;2022-09-09T09:29:59;18.80;1.00
1476;DHT22;730;48.870;12.542;2022-09-09T09:32:28;18.70;1.00
1476;DHT22;730;48.870;12.542;2022-09-09T09:34:56;18.60;1.00
1476;DHT22;730;48.870;12.542;2022-09-09T09:37:33;18.60;1.00
1476;DHT22;730;48.870;12.542;2022-09-09T09:40:14;18.60;1.00
1476;DHT22;730;48.870;12.542;2022-09-09T09:42:57;18.60;1.00
1476;DHT22;730;48.870;12.542;2022-09-09T09:45:32;18.60;1.00
1476;DHT22;730;48.870;12.542;2022-09-09T09:48:04;18.60;1.00
1476;DHT22;730;48.870;12.542;2022-09-09T09:50:32;18.60;1.00
1476;DHT22;730;48.870;12.542;2022-09-09T09:53:00;18.60;1.00
1476;DHT22;730;48.870;12.542;2022-09-09T09:55:29;18.50;1.00
1476;DHT22;730;48.870;12.542;2022-09-09T09:58:04;18.40;1.00
1476;DHT22;730;48.870;12.542;2022-09-09T10:00:30;18.20;1.50
1476;DHT22;730;48.870;12.542;2022-09-09T10:02:55;18.10;3.10
1476;DHT22;730;48.870;12.542;2022-09-09T10:05:24;18.00;4.20
1476;DHT22;730;48.870;12.542;2022-09-09T10:11:42;17.90;5.80
1476;DHT22;730;48.870;12.542;2022-09-09T10:19:09;17.80;9.00
1476;DHT22;730;48.870;12.542;2022-09-09T10:21:57;17.70;9.70
1476;DHT22;730;48.870;12.542;2022-09-09T10:24:40;17.60;10.90
1476;DHT22;730;48.870;12.542;2022-09-09T10:32:40;17.40;12.40
1476;DHT22;730;48.870;12.542;2022-09-09T10:35:10;17.40;12.00
1476;DHT22;730;48.870;12.542;2022-09-09T10:40:37;17.40;12.30
1476;DHT22;730;48.870;12.542;2022-09-09T10:43:12;17.50;13.30
1476;DHT22;730;48.870;12.542;2022-09-09T10:46:11;17.50;12.60
1476;DHT22;730;48.870;12.542;2022-09-09T10:51:23;17.60;11.80
1476;DHT22;730;48.870;12.542;2022-09-09T10:54:10;17.60;12.20
1476;DHT22;730;48.870;12.542;2022-09-09T10:56:38;17.60;11.60
1476;DHT22;730;48.870;12.542;2022-09-09T10:59:15;17.50;11.80
1476;DHT22;730;48.870;12.542;2022-09-09T11:01:50;17.50;12.10
1476;DHT22;730;48.870;12.542;2022-09-09T11:04:22;17.50;12.80
1476;DHT22;730;48.870;12.542;2022-09-09T11:06:52;17.50;12.30
1476;DHT22;730;48.870;12.542;2022-09-09T11:09:23;17.60;13.20
1476;DHT22;730;48.870;12.542;2022-09-09T11:11:56;17.60;12.80
1476;DHT22;730;48.870;12.542;2022-09-09T11:14:29;17.70;13.10
1476;DHT22;730;48.870;12.542;2022-09-09T11:17:00;17.70;13.40
1476;DHT22;730;48.870;12.542;2022-09-09T11:19:40;17.80;13.40
1476;DHT22;730;48.870;12.542;2022-09-09T11:22:33;18.00;13.90
1476;DHT22;730;48.870;12.542;2022-09-09T11:25:06;18.20;13.60
1476;DHT22;730;48.870;12.542;2022-09-09T11:27:56;18.40;12.20
1476;DHT22;730;48.870;12.542;2022-09-09T11:38:46;18.90;6.50
1476;DHT22;730;48.870;12.542;2022-09-09T11:41:13;18.90;6.10
1476;DHT22;730;48.870;12.542;2022-09-09T11:43:50;18.90;5.90
1476;DHT22;730;48.870;12.542;2022-09-09T11:46:19;19.10;6.50
1476;DHT22;730;48.870;12.542;2022-09-09T11:48:57;19.20;5.70
1476;DHT22;730;48.870;12.542;2022-09-09T11:51:29;19.30;2.10
1476;DHT22;730;48.870;12.542;2022-09-09T11:54:01;19.50;2.10
1476;DHT22;730;48.870;12.542;2022-09-09T11:56:31;19.70;3.20
1476;DHT22;730;48.870;12.542;2022-09-09T11:59:03;19.90;1.00
1476;DHT22;730;48.870;12.542;2022-09-09T12:01:30;20.20;1.00
1476;DHT22;730;48.870;12.542;2022-09-09T12:04:14;20.50;1.00
1476;DHT22;730;48.870;12.542;2022-09-09T12:09:25;20.70;1.00
1476;DHT22;730;48.870;12.542;2022-09-09T12:11:52;20.60;1.00
1476;DHT22;730;48.870;12.542;2022-09-09T12:17:19;20.90;1.00
1476;DHT22;730;48.870;12.542;2022-09-09T12:19:46;21.00;1.00
1476;DHT22;730;48.870;12.542;2022-09-09T12:22:31;21.40;1.00
1476;DHT22;730;48.870;12.542;2022-09-09T12:28:20;22.70;1.00
1476;DHT22;730;48.870;12.542;2022-09-09T12:33:39;23.60;1.00
1476;DHT22;730;48.870;12.542;2022-09-09T12:36:12;23.90;1.00
1476;DHT22;730;48.870;12.542;2022-09-09T12:38:40;24.10;1.00
1476;DHT22;730;48.870;12.542;2022-09-09T12:41:06;24.80;1.00
1476;DHT22;730;48.870;12.542;2022-09-09T12:43:45;25.70;1.00
1476;DHT22;730;48.870;12.542;2022-09-09T12:46:49;26.70;1.00
1476;DHT22;730;48.870;12.542;2022-09-09T12:49:38;27.40;1.00
1476;DHT22;730;48.870;12.542;2022-09-09T12:52:52;28.10;1.00
1476;DHT22;730;48.870;12.542;2022-09-09T12:54:53;28.70;1.00
1476;DHT22;730;48.870;12.542;2022-09-09T12:57:20;29.60;1.00
1476;DHT22;730;48.870;12.542;2022-09-09T12:59:48;30.60;1.00
1476;DHT22;730;48.870;12.542;2022-09-09T13:02:26;31.20;1.00
1476;DHT22;730;48.870;12.542;2022-09-09T13:04:53;31.50;1.00
1476;DHT22;730;48.870;12.542;2022-09-09T13:07:20;31.90;1.00
1476;DHT22;730;48.870;12.542;2022-09-09T13:09:47;32.20;1.00
1476;DHT22;730;48.870;12.542;2022-09-09T13:12:19;32.50;1.00
1476;DHT22;730;48.870;12.542;2022-09-09T13:14:52;33.00;1.00
1476;DHT22;730;48.870;12.542;2022-09-09T13:17:31;33.10;1.00
1476;DHT22;730;48.870;12.542;2022-09-09T13:19:57;32.80;1.00
1476;DHT22;730;48.870;12.542;2022-09-09T13:22:35;32.30;1.00
1476;DHT22;730;48.870;12.542;2022-09-09T13:27:38;31.10;1.00
1476;DHT22;730;48.870;12.542;2022-09-09T13:35:52;29.60;1.00
1476;DHT22;730;48.870;12.542;2022-09-09T13:38:19;29.90;1.00
1476;DHT22;730;48.870;12.542;2022-09-09T13:43:31;30.80;1.00
1476;DHT22;730;48.870;12.542;2022-09-09T13:46:01;31.30;1.00
1476;DHT22;730;48.870;12.542;2022-09-09T13:48:27;32.20;1.00
1476;DHT22;730;48.870;12.542;2022-09-09T13:51:03;32.60;1.00
1476;DHT22;730;48.870;12.542;2022-09-09T13:53:32;32.00;1.00
1476;DHT22;730;48.870;12.542;2022-09-09T13:55:59;31.90;1.00
1476;DHT22;730;48.870;12.542;2022-09-09T13:58:25;32.60;1.00
1476;DHT22;730;48.870;12.542;2022-09-09T14:00:52;33.30;1.00
1476;DHT22;730;48.870;12.542;2022-09-09T14:03:19;33.60;1.00
1476;DHT22;730;48.870;12.542;2022-09-09T14:05:45;33.80;1.00
1476;DHT22;730;48.870;12.542;2022-09-09T14:08:20;33.40;1.00
1476;DHT22;730;48.870;12.542;2022-09-09T14:10:46;33.70;1.00
1476;DHT22;730;48.870;12.542;2022-09-09T14:13:12;34.00;1.00
1476;DHT22;730;48.870;12.542;2022-09-09T14:15:38;34.40;1.00
1476;DHT22;730;48.870;12.542;2022-09-09T14:18:04;35.30;1.00
1476;DHT22;730;48.870;12.542;2022-09-09T14:20:29;36.00;1.00
1476;DHT22;730;48.870;12.542;2022-09-09T14:22:55;35.80;1.00
1476;DHT22;730;48.870;12.542;2022-09-09T14:25:22;35.80;1.00
1476;DHT22;730;48.870;12.542;2022-09-09T14:27:48;35.20;1.00
1476;DHT22;730;48.870;12.542;2022-09-09T14:30:16;35.00;1.00
1476;DHT22;730;48.870;12.542;2022-09-09T14:32:42;34.80;1.00
1476;DHT22;730;48.870;12.542;2022-09-09T14:35:08;34.60;1.00
1476;DHT22;730;48.870;12.542;2022-09-09T14:37:33;34.80;1.00
1476;DHT22;730;48.870;12.542;2022-09-09T14:39:59;35.00;1.00
1476;DHT22;730;48.870;12.542;2022-09-09T14:42:25;35.00;1.00
1476;DHT22;730;48.870;12.542;2022-09-09T14:44:52;34.90;1.00
1476;DHT22;730;48.870;12.542;2022-09-09T14:47:17;33.50;1.00
1476;DHT22;730;48.870;12.542;2022-09-09T14:49:43;32.70;1.00
1476;DHT22;730;48.870;12.542;2022-09-09T14:52:09;33.20;1.00
1476;DHT22;730;48.870;12.542;2022-09-09T14:54:35;33.50;1.00
1476;DHT22;730;48.870;12.542;2022-09-09T14:57:00;34.10;1.00
1476;DHT22;730;48.870;12.542;2022-09-09T14:59:26;34.40;1.00
1476;DHT22;730;48.870;12.542;2022-09-09T15:01:52;34.50;1.00
1476;DHT22;730;48.870;12.542;2022-09-09T15:04:18;33.80;1.00
1476;DHT22;730;48.870;12.542;2022-09-09T15:06:44;32.90;1.00
1476;DHT22;730;48.870;12.542;2022-09-09T15:09:14;32.20;1.00
1476;DHT22;730;48.870;12.542;2022-09-09T15:11:39;31.90;1.00
1476;DHT22;730;48.870;12.542;2022-09-09T15:14:06;31.30;1.00
1476;DHT22;730;48.870;12.542;2022-09-09T15:16:32;30.50;1.00
1476;DHT22;730;48.870;12.542;2022-09-09T15:19:00;29.70;1.00
1476;DHT22;730;48.870;12.542;2022-09-09T15:21:31;29.00;1.00
1476;DHT22;730;48.870;12.542;2022-09-09T15:23:57;28.50;1.00
1476;DHT22;730;48.870;12.542;2022-09-09T15:26:23;27.80;1.00
1476;DHT22;730;48.870;12.542;2022-09-09T15:28:50;27.20;1.00
1476;DHT22;730;48.870;12.542;2022-09-09T15:31:21;26.70;1.00
1476;DHT22;730;48.870;12.542;2022-09-09T15:33:49;26.50;1.00
1476;DHT22;730;48.870;12.542;2022-09-09T15:36:20;26.20;1.00
1476;DHT22;730;48.870;12.542;2022-09-09T15:38:47;26.00;1.00
1476;DHT22;730;48.870;12.542;2022-09-09T15:41:13;25.80;1.00
1476;DHT22;730;48.870;12.542;2022-09-09T15:43:43;25.50;1.00
1476;DHT22;730;48.870;12.542;2022-09-09T15:46:42;25.20;1.00
1476;DHT22;730;48.870;12.542;2022-09-09T15:51:42;24.50;1.00
1476;DHT22;730;48.870;12.542;2022-09-09T15:54:09;24.10;1.00
1476;DHT22;730;48.870;12.542;2022-09-09T15:56:35;23.80;1.00
1476;DHT22;730;48.870;12.542;2022-09-09T15:59:02;23.70;1.00
1476;DHT22;730;48.870;12.542;2022-09-09T16:01:29;23.60;1.00
1476;DHT22;730;48.870;12.542;2022-09-09T16:03:56;23.50;1.00
1476;DHT22;730;48.870;12.542;2022-09-09T16:06:23;23.30;1.00
1476;DHT22;730;48.870;12.542;2022-09-09T16:08:51;23.20;1.00
1476;DHT22;730;48.870;12.542;2022-09-09T16:11:20;22.90;1.00
1476;DHT22;730;48.870;12.542;2022-09-09T16:13:48;22.70;1.00
1476;DHT22;730;48.870;12.542;2022-09-09T16:16:15;22.60;1.00
1476;DHT22;730;48.870;12.542;2022-09-09T16:18:43;22.50;1.00
1476;DHT22;730;48.870;12.542;2022-09-09T16:21:38;22.30;1.00
1476;DHT22;730;48.870;12.542;2022-09-09T16:24:06;22.30;1.00
1476;DHT22;730;48.870;12.542;2022-09-09T16:26:33;22.20;1.00
1476;DHT22;730;48.870;12.542;2022-09-09T16:29:00;22.10;1.00
1476;DHT22;730;48.870;12.542;2022-09-09T16:31:27;22.00;1.00
1476;DHT22;730;48.870;12.542;2022-09-09T16:33:53;21.90;1.00
1476;DHT22;730;48.870;12.542;2022-09-09T16:36:24;21.80;1.00
1476;DHT22;730;48.870;12.542;2022-09-09T16:38:56;21.80;1.00
1476;DHT22;730;48.870;12.542;2022-09-09T16:41:23;21.80;1.00
1476;DHT22;730;48.870;12.542;2022-09-09T16:43:54;21.70;1.00
1476;DHT22;730;48.870;12.542;2022-09-09T16:46:20;21.60;1.00
1476;DHT22;730;48.870;12.542;2022-09-09T16:48:47;21.60;1.00
1476;DHT22;730;48.870;12.542;2022-09-09T16:51:21;21.50;1.00
1476;DHT22;730;48.870;12.542;2022-09-09T16:53:49;21.40;1.00
1476;DHT22;730;48.870;12.542;2022-09-09T16:56:17;21.30;1.00
1476;DHT22;730;48.870;12.542;2022-09-09T16:58:49;21.10;1.00
1476;DHT22;730;48.870;12.542;2022-09-09T17:01:15;21.00;1.00
1476;DHT22;730;48.870;12.542;2022-09-09T17:03:41;20.90;1.00
1476;DHT22;730;48.870;12.542;2022-09-09T17:06:14;20.90;1.00
1476;DHT22;730;48.870;12.542;2022-09-09T17:08:41;20.80;1.00
1476;DHT22;730;48.870;12.542;2022-09-09T17:11:17;20.80;1.00
1476;DHT22;730;48.870;12.542;2022-09-09T17:13:45;20.80;1.00
1476;DHT22;730;48.870;12.542;2022-09-09T17:16:12;20.60;1.00
1476;DHT22;730;48.870;12.542;2022-09-09T17:18:38;20.60;1.00
1476;DHT22;730;48.870;12.542;2022-09-09T17:21:12;20.50;1.00
1476;DHT22;730;48.870;12.542;2022-09-09T17:23:40;20.40;1.00
1476;DHT22;730;48.870;12.542;2022-09-09T17:26:07;20.30;1.00
1476;DHT22;730;48.870;12.542;2022-09-09T17:28:34;20.10;1.00
1476;DHT22;730;48.870;12.542;2022-09-09T17:31:01;20.00;1.00
1476;DHT22;730;48.870;12.542;2022-09-09T17:33:28;19.90;1.00
1476;DHT22;730;48.870;12.542;2022-09-09T17:36:00;19.90;1.00
1476;DHT22;730;48.870;12.542;2022-09-09T17:38:27;19.90;1.00
1476;DHT22;730;48.870;12.542;2022-09-09T17:41:10;19.80;1.00
1476;DHT22;730;48.870;12.542;2022-09-09T17:43:37;19.70;1.00
1476;DHT22;730;48.870;12.542;2022-09-09T17:46:14;19.60;1.00
1476;DHT22;730;48.870;12.542;2022-09-09T17:48:41;19.50;1.00
1476;DHT22;730;48.870;12.542;2022-09-09T17:51:09;19.50;1.00
1476;DHT22;730;48.870;12.542;2022-09-09T17:53:44;19.50;1.00
1476;DHT22;730;48.870;12.542;2022-09-09T17:56:19;19.50;1.00
1476;DHT22;730;48.870;12.542;2022-09-09T17:58:48;19.50;1.00
1476;DHT22;730;48.870;12.542;2022-09-09T18:01:21;19.40;1.00
1476;DHT22;730;48.870;12.542;2022-09-09T18:03:49;19.30;1.00
1476;DHT22;730;48.870;12.542;2022-09-09T18:06:20;19.30;1.00
1476;DHT22;730;48.870;12.542;2022-09-09T18:08:51;19.30;1.00
1476;DHT22;730;48.870;12.542;2022-09-09T18:11:18;19.20;1.00
1476;DHT22;730;48.870;12.542;2022-09-09T18:13:52;19.20;1.00
1476;DHT22;730;48.870;12.542;2022-09-09T18:16:18;19.20;1.00
1476;DHT22;730;48.870;12.542;2022-09-09T18:18:45;19.10;1.00
1476;DHT22;730;48.870;12.542;2022-09-09T18:21:11;19.10;1.00
1476;DHT22;730;48.870;12.542;2022-09-09T18:23:40;19.00;1.00
1476;DHT22;730;48.870;12.542;2022-09-09T18:26:12;19.00;1.00